Terminal Aerodrome Forecast
Issued by NWS

Home | Current Version | Previous Version | Text Only | Print | Product List | Glossary On
Versions: 1 2 3 4 5 6 7 8 9 10 11 12 13 14 15 16
000
FTUS45 KRIW 230200 AAA
TAFCOD
TAF AMD
KCOD 230215Z 2302/2324 03008KT P6SM SKC
      TEMPO 2302/2304 02015G25KT
     FM231200 17006KT P6SM SCT100 BKN200
     FM231800 13007KT P6SM SCT100 BKN200
      AMD LTD TO CLD VIS AND WIND=

USA.gov is the U.S. government's official web portal to all federal, state and local government web resources and services.